Alps, New York
Current Conditions -  °F | °C
As of 2:51 PM on Friday 28 Nov 2014 (Local Time) from KALB Reporting Station
Broken Clouds Broken Clouds  
Wind Chill: 20°   Ceiling: 4200
Heat Index: 29°   Visibility: 10mi
Dew Point: 15°   Wind: 10mph
Humidity: 56%   Direction: 290°WNW
Pressure: 30.16"   Gusts: NA
Location:  42.6497°N, 73.5273°W
Report Text: KALB 281951Z 29009KT 10SM FEW035 BKN042 BKN060 M02/M09 A3016 RMK AO2 SLP216 T10171094
Loading
Personal Weather Stations






























Interactive Weather Map New forecast layout! Learn more

10-Day Weather Forecast

Advertisements
Track Severe Weather on mobile